KLWV/LWV METAR and TAF weather

Enter ICAO airport designator
Station Type Date Time Source
KLWV METAR 2023/02/05 23:53 UTC NOAA

KLWV 052353Z AUTO 24006KT 10SM CLR 08/00 A3006 RMK AO2 SLP180 T00780000 10133 20078 53017 $


Station Type Date Time Source
KLWV Decoded METAR 2023/02/05 23:53 UTC NOAA

LAWRENCEVILLE-VINCENNES INTERNATIONAL , IL, United States (KLWV) 38-46N 87-36W 131M
Feb 05, 2023 - 06:53 PM EST / 2023.02.05 2353 UTC
Wind: from the WSW (240 degrees) at 7 MPH (6 KT):0
Visibility: 10 mile(s):0
Sky conditions: clear
Temperature: 46.0 F (7.8 C)
Dew Point: 32.0 F (0.0 C)
Relative Humidity: 57%
Pressure (altimeter): 30.06 in. Hg (1017 hPa)
Pressure tendency: 0.05 inches (1.7 hPa) higher than three hours ago
ob: KLWV 052353Z AUTO 24006KT 10SM CLR 08/00 A3006 RMK AO2 SLP180 T00780000 10133 20078 53017
cycle: 0

Station Type Date Time Source
KLWV TAF UTC NOAA

Error!

Example: see airport list